createdAt,value
2023-04-05T00:00:42.035Z,5.72
2023-04-05T00:03:06.057Z,6.28
2023-04-05T00:05:31.359Z,5.95
2023-04-05T00:07:55.187Z,6.30
2023-04-05T00:10:18.729Z,6.50
2023-04-05T00:12:41.985Z,6.07
2023-04-05T00:15:06.075Z,7.28
2023-04-05T00:17:31.546Z,6.60
2023-04-05T00:19:57.351Z,6.20
2023-04-05T00:22:26.024Z,6.05
2023-04-05T00:24:49.317Z,6.25
2023-04-05T00:27:12.666Z,6.60
2023-04-05T00:29:36.092Z,5.82
2023-04-05T00:31:59.993Z,6.50
2023-04-05T00:34:25.320Z,6.43
2023-04-05T00:36:48.582Z,6.25
2023-04-05T00:39:12.002Z,6.70
2023-04-05T00:41:36.386Z,6.82
2023-04-05T00:44:00.556Z,6.57
2023-04-05T00:46:24.211Z,6.55
2023-04-05T00:48:47.959Z,5.93
2023-04-05T00:51:13.098Z,6.30
2023-04-05T00:53:37.603Z,6.28
2023-04-05T00:56:02.056Z,5.57
2023-04-05T00:58:25.421Z,6.25
2023-04-05T01:01:01.615Z,6.28
2023-04-05T01:03:27.632Z,6.95
2023-04-05T01:05:57.273Z,6.80
2023-04-05T01:08:30.499Z,6.57
2023-04-05T01:11:00.230Z,7.13
2023-04-05T01:13:26.048Z,6.88
2023-04-05T01:15:49.320Z,6.63
2023-04-05T01:18:13.972Z,6.32
2023-04-05T01:20:44.808Z,6.87
2023-04-05T01:23:38.893Z,7.07
2023-04-05T01:26:48.117Z,7.28
2023-04-05T01:29:46.994Z,6.95
2023-04-05T01:32:25.184Z,6.80
2023-04-05T01:34:57.108Z,6.18
2023-04-05T01:37:24.941Z,7.13
2023-04-05T01:39:51.124Z,6.97
2023-04-05T01:42:14.860Z,6.97
2023-04-05T01:44:39.495Z,6.50
2023-04-05T01:47:03.109Z,6.40
2023-04-05T01:49:26.949Z,6.97
2023-04-05T01:51:50.396Z,6.25
2023-04-05T01:54:14.066Z,7.35
2023-04-05T01:56:39.941Z,7.40
2023-04-05T01:59:03.347Z,6.73
2023-04-05T02:01:29.674Z,6.95
2023-04-05T02:03:54.091Z,6.80
2023-04-05T02:06:17.576Z,7.50
2023-04-05T02:08:40.805Z,7.20
2023-04-05T02:11:04.109Z,7.47
2023-04-05T02:13:27.379Z,6.63
2023-04-05T02:15:51.627Z,7.07
2023-04-05T02:18:16.353Z,7.75
2023-04-05T02:20:39.807Z,7.28
2023-04-05T02:23:03.262Z,7.18
2023-04-05T02:25:26.542Z,6.70
2023-04-05T02:27:50.343Z,7.10
2023-04-05T02:30:14.651Z,6.70
2023-04-05T02:32:38.702Z,7.10
2023-04-05T02:35:03.962Z,7.22
2023-04-05T02:37:27.336Z,6.67
2023-04-05T02:39:50.807Z,7.10
2023-04-05T02:42:14.157Z,7.07
2023-04-05T02:44:38.099Z,7.30
2023-04-05T02:47:01.582Z,7.10
2023-04-05T02:49:28.054Z,8.10
2023-04-05T02:51:55.935Z,7.93
2023-04-05T02:54:19.316Z,6.78
2023-04-05T02:56:43.597Z,7.40
2023-04-05T02:59:11.519Z,7.30
2023-04-05T03:01:36.492Z,7.50
2023-04-05T03:04:00.779Z,7.73
2023-04-05T03:06:24.524Z,8.03
2023-04-05T03:08:49.749Z,8.03
2023-04-05T03:11:21.230Z,7.03
2023-04-05T03:13:48.953Z,7.43
2023-04-05T03:16:24.741Z,7.55
2023-04-05T03:18:48.950Z,7.45
2023-04-05T03:21:12.741Z,7.40
2023-04-05T03:23:50.399Z,8.07
2023-04-05T03:26:18.658Z,7.20
2023-04-05T03:28:46.564Z,7.37
2023-04-05T03:31:10.743Z,7.80
2023-04-05T03:33:34.301Z,7.90
2023-04-05T03:35:57.934Z,8.13
2023-04-05T03:38:21.636Z,8.20
2023-04-05T03:41:04.622Z,8.67
2023-04-05T03:43:29.999Z,7.87
2023-04-05T03:45:53.330Z,8.17
2023-04-05T03:48:20.043Z,8.53
2023-04-05T03:50:44.859Z,7.37
2023-04-05T03:53:08.189Z,7.70
2023-04-05T03:55:33.128Z,8.23
2023-04-05T03:58:01.900Z,8.10
2023-04-05T04:00:30.258Z,8.53
2023-04-05T04:03:22.814Z,7.73
2023-04-05T04:05:48.270Z,8.27
2023-04-05T04:08:13.611Z,7.30
2023-04-05T04:10:37.099Z,7.60
2023-04-05T04:13:07.319Z,8.87
2023-04-05T04:15:31.485Z,8.50
2023-04-05T04:18:30.254Z,8.13
2023-04-05T04:21:08.394Z,7.63
2023-04-05T04:23:53.000Z,8.90
2023-04-05T04:26:37.575Z,8.37
2023-04-05T04:29:33.562Z,8.43
2023-04-05T04:32:17.218Z,8.40
2023-04-05T04:35:05.201Z,9.00
2023-04-05T04:37:37.600Z,8.80
2023-04-05T04:40:38.842Z,8.70
2023-04-05T04:43:27.610Z,8.53
2023-04-05T04:46:14.973Z,9.07
2023-04-05T04:48:55.447Z,8.87
2023-04-05T04:51:28.439Z,8.80
2023-04-05T04:53:51.616Z,8.57
2023-04-05T04:56:15.054Z,9.27
2023-04-05T04:58:38.293Z,8.40
2023-04-05T05:01:10.734Z,8.70
2023-04-05T05:03:36.606Z,8.00
2023-04-05T05:05:59.858Z,9.53
2023-04-05T05:08:27.574Z,8.47
2023-04-05T05:10:53.598Z,8.23
2023-04-05T05:13:16.933Z,8.57
2023-04-05T05:15:41.978Z,9.80
2023-04-05T05:18:06.899Z,8.87
2023-04-05T05:20:30.133Z,8.77
2023-04-05T05:22:53.410Z,8.93
2023-04-05T05:25:16.773Z,9.47
2023-04-05T05:27:40.109Z,10.30
2023-04-05T05:30:03.631Z,9.30
2023-04-05T05:32:27.252Z,10.10
2023-04-05T05:34:51.934Z,9.37
2023-04-05T05:37:16.652Z,9.53
2023-04-05T05:39:40.277Z,9.30
2023-04-05T05:42:04.138Z,10.47
2023-04-05T05:44:27.472Z,9.23
2023-04-05T05:46:50.718Z,9.13
2023-04-05T05:49:13.949Z,9.07
2023-04-05T05:51:38.500Z,8.87
2023-04-05T05:54:01.772Z,9.73
2023-04-05T05:56:25.017Z,9.73
2023-04-05T05:58:48.335Z,10.73
2023-04-05T06:01:11.989Z,9.70
2023-04-05T06:03:35.485Z,10.50
2023-04-05T06:06:03.059Z,10.03
2023-04-05T06:08:28.559Z,10.23
2023-04-05T06:10:53.573Z,10.20
2023-04-05T06:13:17.172Z,10.33
2023-04-05T06:15:40.453Z,9.33
2023-04-05T06:18:03.861Z,9.93
2023-04-05T06:20:27.152Z,10.27
2023-04-05T06:22:50.603Z,9.97
2023-04-05T06:25:16.480Z,10.50
2023-04-05T06:27:41.851Z,10.67
2023-04-05T06:30:05.875Z,11.03
2023-04-05T06:32:29.218Z,10.20
2023-04-05T06:34:53.752Z,10.67
2023-04-05T06:37:17.021Z,10.93
2023-04-05T06:39:40.418Z,10.93
2023-04-05T06:42:05.501Z,10.07
2023-04-05T06:44:36.727Z,9.00
2023-04-05T06:47:00.116Z,10.00
2023-04-05T06:49:23.411Z,10.37
2023-04-05T06:51:46.714Z,9.73
2023-04-05T06:54:10.505Z,8.63
2023-04-05T06:56:33.902Z,7.38
2023-04-05T06:58:59.604Z,6.90
2023-04-05T07:01:24.857Z,6.90
2023-04-05T07:03:48.229Z,7.35
2023-04-05T07:06:11.791Z,6.67
2023-04-05T07:08:35.051Z,6.85
2023-04-05T07:10:58.572Z,6.63
2023-04-05T07:13:23.792Z,6.93
2023-04-05T07:15:48.810Z,6.40
2023-04-05T07:18:12.115Z,6.20
2023-04-05T07:20:35.480Z,6.07
2023-04-05T07:22:58.950Z,6.22
2023-04-05T07:25:22.188Z,6.18
2023-04-05T07:27:45.544Z,6.40
2023-04-05T07:30:10.291Z,6.03
2023-04-05T07:32:36.102Z,5.50
2023-04-05T07:34:59.450Z,6.72
2023-04-05T07:37:22.747Z,6.50
2023-04-05T07:39:46.435Z,6.40
2023-04-05T07:42:09.734Z,6.80
2023-04-05T07:44:33.018Z,6.75
2023-04-05T07:46:56.688Z,6.28
2023-04-05T07:49:27.242Z,6.70
2023-04-05T07:51:51.737Z,6.13
2023-04-05T07:54:14.945Z,6.70
2023-04-05T07:56:39.002Z,7.03
2023-04-05T07:59:02.531Z,6.60
2023-04-05T08:01:27.842Z,7.20
2023-04-05T08:03:51.208Z,7.85
2023-04-05T08:06:18.273Z,7.60
2023-04-05T08:08:41.726Z,7.00
2023-04-05T08:11:05.282Z,7.07
2023-04-05T08:13:29.136Z,7.10
2023-04-05T08:15:52.429Z,7.40
2023-04-05T08:18:15.769Z,6.95
2023-04-05T08:20:40.762Z,7.30
2023-04-05T08:23:05.570Z,7.00
2023-04-05T08:25:28.832Z,6.93
2023-04-05T08:27:52.182Z,7.22
2023-04-05T08:30:16.608Z,7.00
2023-04-05T08:32:40.006Z,7.80
2023-04-05T08:35:03.610Z,6.32
2023-04-05T08:37:27.803Z,7.13
2023-04-05T08:39:52.645Z,8.10
2023-04-05T08:42:20.203Z,7.68
2023-04-05T08:44:45.845Z,7.72
2023-04-05T08:47:10.352Z,7.00
2023-04-05T08:49:34.237Z,7.35
2023-04-05T08:51:57.919Z,7.65
2023-04-05T08:54:21.195Z,7.07
2023-04-05T08:56:49.709Z,8.00
2023-04-05T08:59:14.244Z,8.13
2023-04-05T09:01:40.585Z,7.57
2023-04-05T09:04:08.948Z,7.57
2023-04-05T09:06:32.346Z,7.50
2023-04-05T09:08:58.313Z,8.15
2023-04-05T09:11:22.125Z,7.45
2023-04-05T09:13:46.850Z,7.80
2023-04-05T09:16:10.567Z,8.23
2023-04-05T09:18:33.894Z,8.07
2023-04-05T09:21:05.728Z,8.23
2023-04-05T09:23:30.647Z,8.13
2023-04-05T09:25:53.952Z,9.68
2023-04-05T09:28:17.242Z,9.10
2023-04-05T09:30:47.858Z,9.10
2023-04-05T09:33:11.633Z,8.35
2023-04-05T09:35:37.695Z,8.38
2023-04-05T09:38:03.278Z,9.02
2023-04-05T09:40:44.230Z,9.18
2023-04-05T09:43:07.540Z,9.20
2023-04-05T09:45:41.633Z,9.00
2023-04-05T09:48:05.118Z,8.60
2023-04-05T09:50:29.159Z,8.70
2023-04-05T09:53:08.049Z,7.88
2023-04-05T09:55:31.409Z,8.63
2023-04-05T09:57:54.755Z,8.63
2023-04-05T10:00:24.076Z,9.02
2023-04-05T10:02:54.405Z,7.60
2023-04-05T10:05:17.974Z,7.88
2023-04-05T10:07:41.575Z,7.30
2023-04-05T10:10:05.854Z,7.10
2023-04-05T10:12:29.605Z,7.40
2023-04-05T10:14:52.992Z,7.25
2023-04-05T10:17:25.347Z,6.82
2023-04-05T10:20:11.745Z,6.75
2023-04-05T10:22:42.786Z,8.23
2023-04-05T10:25:14.358Z,6.90
2023-04-05T10:27:48.888Z,7.53
2023-04-05T10:30:14.775Z,7.90
2023-04-05T10:32:56.965Z,7.32
2023-04-05T10:35:32.562Z,7.40
2023-04-05T10:38:14.233Z,7.85
2023-04-05T10:40:38.411Z,7.43
2023-04-05T10:43:01.951Z,6.95
2023-04-05T10:45:26.602Z,7.00
2023-04-05T10:47:56.385Z,7.60
2023-04-05T10:50:25.970Z,7.38
2023-04-05T10:52:50.449Z,7.97
2023-04-05T10:55:14.225Z,7.35
2023-04-05T10:57:38.698Z,7.80
2023-04-05T11:00:03.349Z,8.02
2023-04-05T11:02:27.267Z,7.53
2023-04-05T11:04:56.807Z,8.48
2023-04-05T11:07:21.561Z,7.00
2023-04-05T11:09:57.924Z,7.38
2023-04-05T11:12:21.302Z,6.93
2023-04-05T11:14:44.566Z,7.10
2023-04-05T11:17:26.253Z,7.60
2023-04-05T11:19:55.777Z,7.30
2023-04-05T11:22:29.705Z,7.53
2023-04-05T11:24:57.766Z,6.93
2023-04-05T11:27:27.781Z,7.43
2023-04-05T11:29:51.258Z,7.22
2023-04-05T11:32:14.670Z,7.70
2023-04-05T11:34:38.211Z,6.95
2023-04-05T11:37:01.479Z,7.75
2023-04-05T11:39:27.521Z,7.72
2023-04-05T11:42:06.546Z,7.15
2023-04-05T11:44:34.638Z,7.30
2023-04-05T11:46:58.670Z,7.85
2023-04-05T11:49:24.553Z,7.55
2023-04-05T11:51:49.029Z,7.28
2023-04-05T11:54:12.350Z,7.20
2023-04-05T11:56:37.621Z,7.80
2023-04-05T11:59:02.013Z,8.07
2023-04-05T12:01:25.727Z,8.85
2023-04-05T12:03:55.229Z,8.55
2023-04-05T12:06:18.683Z,7.18
2023-04-05T12:08:50.074Z,7.70
2023-04-05T12:11:13.884Z,7.15
2023-04-05T12:13:39.726Z,7.38
2023-04-05T12:16:06.094Z,7.65
2023-04-05T12:18:32.533Z,7.60
2023-04-05T12:20:56.535Z,8.27
2023-04-05T12:23:21.327Z,8.32
2023-04-05T12:25:48.145Z,7.85
2023-04-05T12:28:11.957Z,8.50
2023-04-05T12:30:38.536Z,8.10
2023-04-05T12:33:09.344Z,8.52
2023-04-05T12:35:35.148Z,7.60
2023-04-05T12:37:59.970Z,7.97
2023-04-05T12:40:24.821Z,8.32
2023-04-05T12:42:48.086Z,8.63
2023-04-05T12:45:15.542Z,8.45
2023-04-05T12:47:51.053Z,8.45
2023-04-05T12:50:17.046Z,8.63
2023-04-05T12:52:40.430Z,8.40
2023-04-05T12:55:03.731Z,8.18
2023-04-05T12:57:32.395Z,8.20
2023-04-05T12:59:55.588Z,8.45
2023-04-05T13:02:18.850Z,8.65
2023-04-05T13:04:43.430Z,8.10
2023-04-05T13:07:06.790Z,8.15
2023-04-05T13:09:32.320Z,8.68
2023-04-05T13:11:55.975Z,8.80
2023-04-05T13:14:19.189Z,8.40
2023-04-05T13:16:42.652Z,8.85
2023-04-05T13:19:05.954Z,8.38
2023-04-05T13:21:31.007Z,9.27
2023-04-05T13:23:54.262Z,7.97
2023-04-05T13:26:17.600Z,8.55
2023-04-05T13:28:40.906Z,8.52
2023-04-05T13:31:06.376Z,8.18
2023-04-05T13:33:29.779Z,8.40
2023-04-05T13:35:53.499Z,8.48
2023-04-05T13:38:18.140Z,9.07
2023-04-05T13:40:41.552Z,7.80
2023-04-05T13:43:04.968Z,7.75
2023-04-05T13:45:28.671Z,8.93
2023-04-05T13:47:51.965Z,8.27
2023-04-05T13:50:15.550Z,8.40
2023-04-05T13:52:38.799Z,8.48
2023-04-05T13:55:04.379Z,8.23
2023-04-05T13:57:27.725Z,7.70
2023-04-05T13:59:51.337Z,7.85
2023-04-05T14:02:15.075Z,7.75
2023-04-05T14:04:38.786Z,7.45
2023-04-05T14:07:02.022Z,7.20
2023-04-05T14:09:25.338Z,8.30
2023-04-05T14:11:49.949Z,7.93
2023-04-05T14:14:13.301Z,7.95
2023-04-05T14:16:38.049Z,8.50
2023-04-05T14:19:01.478Z,8.00
2023-04-05T14:21:26.521Z,8.23
2023-04-05T14:23:53.038Z,8.38
2023-04-05T14:26:16.483Z,8.05
2023-04-05T14:28:41.281Z,8.68
2023-04-05T14:31:05.188Z,8.05
2023-04-05T14:33:28.726Z,8.30
2023-04-05T14:35:52.130Z,8.02
2023-04-05T14:38:15.762Z,8.23
2023-04-05T14:40:39.614Z,8.35
2023-04-05T14:43:03.825Z,9.00
2023-04-05T14:45:28.726Z,8.38
2023-04-05T14:47:52.280Z,8.70
2023-04-05T14:50:15.965Z,8.27
2023-04-05T14:52:39.964Z,8.07
2023-04-05T14:55:03.578Z,8.27
2023-04-05T14:57:27.005Z,8.13
2023-04-05T14:59:50.502Z,8.15
2023-04-05T15:02:15.794Z,8.77
2023-04-05T15:04:41.228Z,7.75
2023-04-05T15:07:04.663Z,8.27
2023-04-05T15:09:28.137Z,8.65
2023-04-05T15:11:51.823Z,7.82
2023-04-05T15:14:28.580Z,8.75
2023-04-05T15:16:54.838Z,8.18
2023-04-05T15:19:19.612Z,7.07
2023-04-05T15:21:43.992Z,7.90
2023-04-05T15:24:07.937Z,7.55
2023-04-05T15:26:31.367Z,7.38
2023-04-05T15:28:54.974Z,7.68
2023-04-05T15:31:18.454Z,7.38
2023-04-05T15:33:42.057Z,7.20
2023-04-05T15:36:09.076Z,7.40
2023-04-05T15:38:32.461Z,7.68
2023-04-05T15:40:56.904Z,7.20
2023-04-05T15:43:20.530Z,6.80
2023-04-05T15:45:44.061Z,7.00
2023-04-05T15:48:07.758Z,7.35
2023-04-05T15:50:31.304Z,6.80
2023-04-05T15:52:56.323Z,7.03
2023-04-05T15:55:20.400Z,7.40
2023-04-05T15:57:44.179Z,7.63
2023-04-05T16:00:09.770Z,7.80
2023-04-05T16:02:33.259Z,7.20
2023-04-05T16:04:56.780Z,7.05
2023-04-05T16:07:20.329Z,7.35
2023-04-05T16:09:45.230Z,7.60
2023-04-05T16:12:08.703Z,7.50
2023-04-05T16:14:32.551Z,7.80
2023-04-05T16:16:56.051Z,8.77
2023-04-05T16:19:19.583Z,8.10
2023-04-05T16:21:43.191Z,7.38
2023-04-05T16:24:07.828Z,7.75
2023-04-05T16:26:33.055Z,7.13
2023-04-05T16:28:56.612Z,7.53
2023-04-05T16:31:20.087Z,8.00
2023-04-05T16:33:43.607Z,7.68
2023-04-05T16:36:07.610Z,7.38
2023-04-05T16:38:31.491Z,10.18
2023-04-05T16:40:54.926Z,7.20
2023-04-05T16:43:19.803Z,7.95
2023-04-05T16:45:44.211Z,7.05
2023-04-05T16:48:08.763Z,6.53
2023-04-05T16:50:32.293Z,6.13
2023-04-05T16:52:55.853Z,6.20
2023-04-05T16:55:19.507Z,6.57
2023-04-05T16:57:42.964Z,5.90
2023-04-05T17:00:10.045Z,6.10
2023-04-05T17:02:33.574Z,5.45
2023-04-05T17:04:57.075Z,5.97
2023-04-05T17:07:20.589Z,5.68
2023-04-05T17:09:43.990Z,5.70
2023-04-05T17:12:10.072Z,6.07
2023-04-05T17:14:35.042Z,4.70
2023-04-05T17:16:59.891Z,5.00
2023-04-05T17:19:23.670Z,5.50
2023-04-05T17:21:48.790Z,5.05
2023-04-05T17:24:12.385Z,5.60
2023-04-05T17:26:35.912Z,5.22
2023-04-05T17:28:59.342Z,5.63
2023-04-05T17:31:22.904Z,5.28
2023-04-05T17:33:48.739Z,10.63
2023-04-05T17:36:12.914Z,7.78
2023-04-05T17:38:36.406Z,9.85
2023-04-05T17:40:59.873Z,7.05
2023-04-05T17:43:23.380Z,6.85
2023-04-05T17:45:47.018Z,9.15
2023-04-05T17:48:10.788Z,7.20
2023-04-05T17:50:37.354Z,5.90
2023-04-05T17:53:00.833Z,6.40
2023-04-05T17:55:24.355Z,5.78
2023-04-05T17:57:47.737Z,5.57
2023-04-05T18:00:13.143Z,6.32
2023-04-05T18:02:37.914Z,7.05
2023-04-05T18:05:01.297Z,5.60
2023-04-05T18:07:27.158Z,6.00
2023-04-05T18:09:50.746Z,7.65
2023-04-05T18:12:14.181Z,10.45
2023-04-05T18:14:38.254Z,9.23
2023-04-05T18:17:01.978Z,7.90
2023-04-05T18:19:25.437Z,8.77
2023-04-05T18:21:48.924Z,8.63
2023-04-05T18:24:15.700Z,7.28
2023-04-05T18:26:39.205Z,7.03
2023-04-05T18:29:02.734Z,6.75
2023-04-05T18:31:26.407Z,7.30
2023-04-05T18:33:49.876Z,7.80
2023-04-05T18:36:13.789Z,8.38
2023-04-05T18:38:37.282Z,7.82
2023-04-05T18:41:04.253Z,7.82
2023-04-05T18:43:28.215Z,7.63
2023-04-05T18:45:55.834Z,8.07
2023-04-05T18:48:19.427Z,7.70
2023-04-05T18:50:43.244Z,7.63
2023-04-05T18:53:06.985Z,7.95
2023-04-05T18:55:30.472Z,7.65
2023-04-05T18:57:55.342Z,7.13
2023-04-05T19:00:19.236Z,7.20
2023-04-05T19:02:42.879Z,7.65
2023-04-05T19:05:07.807Z,7.38
2023-04-05T19:07:31.880Z,7.88
2023-04-05T19:09:55.343Z,7.53
2023-04-05T19:12:18.875Z,7.97
2023-04-05T19:14:43.742Z,8.20
2023-04-05T19:17:09.228Z,7.47
2023-04-05T19:19:32.795Z,7.93
2023-04-05T19:21:57.720Z,8.55
2023-04-05T19:24:21.931Z,8.13
2023-04-05T19:26:46.015Z,8.23
2023-04-05T19:29:09.843Z,8.60
2023-04-05T19:31:35.022Z,8.18
2023-04-05T19:33:58.539Z,10.80
2023-04-05T19:36:21.997Z,9.77
2023-04-05T19:38:45.890Z,11.27
2023-04-05T19:41:09.708Z,11.90
2023-04-05T19:43:33.420Z,11.18
2023-04-05T19:45:59.720Z,10.60
2023-04-05T19:48:39.991Z,11.00
2023-04-05T19:51:06.735Z,11.15
2023-04-05T19:53:43.866Z,9.85
2023-04-05T19:56:12.405Z,10.18
2023-04-05T19:58:36.354Z,9.18
2023-04-05T20:00:59.859Z,9.15
2023-04-05T20:03:30.603Z,9.02
2023-04-05T20:06:12.509Z,8.75
2023-04-05T20:08:38.515Z,8.88
2023-04-05T20:11:01.975Z,8.52
2023-04-05T20:13:25.980Z,8.90
2023-04-05T20:15:50.786Z,8.65
2023-04-05T20:18:26.412Z,8.88
2023-04-05T20:20:49.939Z,8.60
2023-04-05T20:23:19.530Z,9.55
2023-04-05T20:25:46.413Z,13.00
2023-04-05T20:28:38.014Z,16.55
2023-04-05T20:31:02.024Z,15.30
2023-04-05T20:33:48.009Z,15.23
2023-04-05T20:36:13.000Z,16.33
2023-04-05T20:38:38.635Z,14.50
2023-04-05T20:41:02.229Z,13.65
2023-04-05T20:43:25.624Z,14.05
2023-04-05T20:45:49.229Z,12.70
2023-04-05T20:48:12.803Z,11.75
2023-04-05T20:50:36.487Z,11.85
2023-04-05T20:52:59.917Z,11.75
2023-04-05T20:55:24.752Z,13.18
2023-04-05T20:57:48.298Z,12.45
2023-04-05T21:00:13.607Z,11.57
2023-04-05T21:02:37.175Z,11.73
2023-04-05T21:05:00.693Z,11.63
2023-04-05T21:07:24.159Z,11.45
2023-04-05T21:09:47.617Z,11.45
2023-04-05T21:12:12.440Z,11.57
2023-04-05T21:14:36.037Z,11.90
2023-04-05T21:16:59.464Z,11.77
2023-04-05T21:19:22.901Z,11.20
2023-04-05T21:21:46.314Z,11.30
2023-04-05T21:24:09.748Z,10.95
2023-04-05T21:26:33.211Z,10.98
2023-04-05T21:28:58.433Z,10.98
2023-04-05T21:31:22.058Z,11.68
2023-04-05T21:33:45.539Z,10.35
2023-04-05T21:36:09.208Z,10.52
2023-04-05T21:38:32.725Z,10.77
2023-04-05T21:40:56.486Z,10.63
2023-04-05T21:43:19.940Z,11.00
2023-04-05T21:45:45.826Z,10.50
2023-04-05T21:48:09.326Z,10.10
2023-04-05T21:50:32.960Z,10.57
2023-04-05T21:52:56.348Z,11.45
2023-04-05T21:55:19.936Z,11.63
2023-04-05T21:57:44.331Z,11.02
2023-04-05T22:00:11.773Z,11.45
2023-04-05T22:02:40.176Z,10.45
2023-04-05T22:05:04.401Z,11.05
2023-04-05T22:07:28.073Z,10.43
2023-04-05T22:09:51.704Z,10.50
2023-04-05T22:12:15.338Z,10.18
2023-04-05T22:14:39.080Z,10.82
2023-04-05T22:17:03.040Z,9.88
2023-04-05T22:19:27.865Z,10.63
2023-04-05T22:21:51.413Z,9.98
2023-04-05T22:24:15.569Z,9.88
2023-04-05T22:26:39.626Z,9.65
2023-04-05T22:29:03.235Z,9.60
2023-04-05T22:31:26.703Z,9.95
2023-04-05T22:33:50.164Z,9.65
2023-04-05T22:36:14.934Z,10.00
2023-04-05T22:38:38.458Z,9.52
2023-04-05T22:41:01.832Z,10.23
2023-04-05T22:43:25.281Z,9.60
2023-04-05T22:45:51.949Z,9.85
2023-04-05T22:48:15.379Z,9.13
2023-04-05T22:50:38.867Z,8.55
2023-04-05T22:53:03.671Z,10.32
2023-04-05T22:55:27.118Z,9.95
2023-04-05T22:57:50.921Z,9.65
2023-04-05T23:00:15.920Z,10.68
2023-04-05T23:02:39.389Z,10.00
2023-04-05T23:05:03.016Z,9.60
2023-04-05T23:07:27.069Z,9.15
2023-04-05T23:09:51.847Z,9.27
2023-04-05T23:12:16.469Z,9.68
2023-04-05T23:14:39.965Z,9.65
2023-04-05T23:17:04.901Z,9.32
2023-04-05T23:19:28.288Z,9.68
2023-04-05T23:21:51.717Z,11.75
2023-04-05T23:24:15.102Z,11.48
2023-04-05T23:26:39.986Z,10.07
2023-04-05T23:29:03.425Z,10.23
2023-04-05T23:31:26.869Z,10.13
2023-04-05T23:33:50.394Z,9.10
2023-04-05T23:36:13.811Z,11.25
2023-04-05T23:38:37.260Z,10.35
2023-04-05T23:41:00.688Z,9.98
2023-04-05T23:43:25.609Z,10.77
2023-04-05T23:45:49.023Z,10.43
2023-04-05T23:48:12.480Z,10.57
2023-04-05T23:50:36.068Z,10.30
2023-04-05T23:53:01.041Z,10.30
2023-04-05T23:55:24.546Z,9.40
2023-04-05T23:57:48.333Z,9.77
